Bookmark and Share
Track history (hours):
 

Le Diamant

Operator: Compangy des Iles du Ponant

Last reported at 2011-Sep-11 15:03 UTC. Time now 2014-Apr-20 05:42 UTC.
Position N 49°43' W 000°39'.
Warning: this ship's position is years out of date!

Length 130 m; draft 5 m.

Type: Passenger vessel. MMSI: 578101000.

NotesDate/timePositionNaut miles runAvg speedWind from/ knotsBaromVisibWave heightAir tempDewpointWater temp
2011-Sep-11 15:03N 49°43' W 000°39'715.1
2011-Sep-11 14:33N 49°39' W 000°30'815.0
2011-Sep-11 14:03N 49°34' W 000°20'714.8
2011-Sep-11 13:33N 49°30' W 000°10'713.8
2011-Sep-11 13:03N 49°28' W 000°00'510.4
2011-Sep-11 12:33N 49°26' E 000°07'11 1.3
2011-Sep-11 04:36N 49°29' W 000°08'5 9.6
2011-Sep-11 04:03N 49°32' W 000°15'510.1
2011-Sep-11 03:33N 49°37' W 000°15'510.6
2011-Sep-11 03:03N 49°42' W 000°14'11012.2
2011-Sep-10 18:03N 51°07' E 001°36'815.2
2011-Sep-10 17:33N 51°13' E 001°44'714.4
2011-Sep-10 17:03N 51°19' E 001°50'713.8
2011-Sep-10 16:33N 51°24' E 001°57'510.7
2011-Sep-10 16:04N 51°24' E 002°05'1912.3
2011-Sep-10 14:31N 51°23' E 002°36'511.6
2011-Sep-10 14:04N 51°22' E 002°44'510.1
2011-Sep-10 13:33N 51°19' E 002°51'611.9
2011-Sep-10 13:03N 51°14' E 002°56'0 0.3
2011-Sep-10 12:28N 51°14' E 002°56'0 0.0
2011-Sep-10 11:58N 51°14' E 002°56'0 0.0
2011-Sep-10 11:28N 51°14' E 002°56'0 0.0
2011-Sep-10 10:58N 51°14' E 002°56'0 0.0
2011-Sep-10 10:34N 51°14' E 002°56'0 0.0
2011-Sep-10 09:58N 51°14' E 002°56'0 0.0
2011-Sep-10 09:28N 51°14' E 002°56'0 0.0
2011-Sep-10 08:58N 51°14' E 002°56'0 0.0
2011-Sep-10 08:28N 51°14' E 002°56'0 0.0
2011-Sep-10 07:58N 51°14' E 002°56'0 0.0
2011-Sep-10 07:28N 51°14' E 002°56'0 0.0
2011-Sep-10 06:58N 51°14' E 002°56'0 0.0
2011-Sep-10 06:28N 51°14' E 002°56'0 0.0
2011-Sep-10 05:58N 51°14' E 002°56'0 0.0
2011-Sep-10 05:29N 51°14' E 002°56'0 0.4
2011-Sep-10 05:03N 51°14' E 002°56'510.4
2011-Sep-10 04:36N 51°18' E 002°52'5 9.3
2011-Sep-10 04:03N 51°21' E 002°46'611.2
2011-Sep-10 03:33N 51°22' E 002°37'23 9.3
2011-Sep-10 01:02N 51°26' E 001°60'612.1
2011-Sep-10 00:33N 51°31' E 002°04'6212.3
2011-Sep-09 19:31N 52°32' E 002°17'2713.5
2011-Sep-09 17:32N 52°56' E 001°58'714.9
2011-Sep-09 17:03N 52°59' E 001°47'714.4
2011-Sep-09 16:33N 53°03' E 001°37'6714.4
2011-Sep-09 11:56N 53°59' E 000°37'513.8
2011-Sep-09 11:33N 54°04' E 000°32'713.8
2011-Sep-09 11:03N 54°09' E 000°26'613.6
2011-Sep-09 10:35N 54°15' E 000°19'713.2
2011-Sep-09 10:04N 54°20' E 000°12'713.1
2011-Sep-09 09:33N 54°25' E 000°05'713.1
2011-Sep-09 09:03N 54°31' W 000°02'612.9
2011-Sep-09 08:33N 54°36' W 000°08'1211.9
2011-Sep-09 07:33N 54°45' W 000°20'265 6.5
2011-Sep-07 15:03N 58°59' W 002°39'714.0
2011-Sep-07 14:31N 59°01' W 002°53'3 5.5
2011-Sep-07 14:01N 58°59' W 002°58'0 0.1
2011-Sep-07 13:31N 58°59' W 002°58'0 0.0
2011-Sep-07 12:31N 58°59' W 002°58'0 0.0
2011-Sep-07 11:55N 58°59' W 002°58'0 0.0
2011-Sep-07 11:25N 58°59' W 002°58'0 0.0
2011-Sep-07 10:55N 58°59' W 002°58'0 0.0
2011-Sep-07 10:31N 58°59' W 002°58'0 0.0
2011-Sep-07 09:55N 58°59' W 002°58'0 0.0
2011-Sep-07 09:25N 58°59' W 002°58'0 0.0
2011-Sep-07 09:01N 58°59' W 002°58'0 0.0
2011-Sep-07 08:31N 58°59' W 002°58'0 0.0
2011-Sep-07 08:01N 58°59' W 002°58'0 0.0
2011-Sep-07 07:31N 58°59' W 002°58'0 0.0
2011-Sep-07 07:01N 58°59' W 002°58'0 0.0
2011-Sep-07 06:26N 58°59' W 002°58'0 1.0
2011-Sep-07 06:03N 58°60' W 002°58'4 8.4
2011-Sep-07 05:33N 59°00' W 002°50'510.1
2011-Sep-07 05:02N 58°59' W 002°40'512.1
2011-Sep-07 04:36N 58°55' W 002°35'710.7
2011-Sep-07 03:55N 58°48' W 002°42'513.3
2011-Sep-07 03:33N 58°45' W 002°49'815.4
2011-Sep-07 03:03N 58°43' W 003°03'916.6
2011-Sep-07 02:32N 58°42' W 003°20'715.0
2011-Sep-07 02:03N 58°42' W 003°34'714.5
2011-Sep-07 01:33N 58°42' W 003°48'714.4
2011-Sep-07 01:03N 58°42' W 004°02'714.2
2011-Sep-07 00:33N 58°41' W 004°15'714.1
2011-Sep-07 00:03N 58°41' W 004°29'714.0
2011-Sep-06 23:32N 58°41' W 004°43'713.8
2011-Sep-06 23:03N 58°40' W 004°56'611.9
2011-Sep-06 22:33N 58°38' W 005°06'612.0
2011-Sep-06 22:03N 58°33' W 005°13'611.8
2011-Sep-06 21:33N 58°28' W 005°17'612.6
2011-Sep-06 21:03N 58°22' W 005°22'2013.2
2011-Sep-06 19:31N 58°05' W 005°41'197 7.0
2011-Sep-05 15:29N 54°48' W 005°38'511.8
2011-Sep-05 15:03N 54°43' W 005°42'5 9.6
2011-Sep-05 14:30N 54°40' W 005°50'3 0.3
2011-Sep-05 05:03N 54°42' W 005°45'613.1
2011-Sep-05 04:37N 54°43' W 005°35'713.4
2011-Sep-05 04:03N 54°40' W 005°24'714.6
2011-Sep-05 03:33N 54°33' W 005°20'714.5
2011-Sep-05 03:03N 54°25' W 005°19'714.5
2011-Sep-05 02:33N 54°18' W 005°22'  

Dump ship's entire track history

sailing weather and tide predictions

Le Diamant — FMAQ — position and weather